Time;durP1;ratioP1;P1;durP2;ratioP2;P2;SDS_P1;SDS_P2;PMS_P1;PMS_P2;Temp;Humidity;BMP_temperature;BMP_pressure;BME280_temperature;BME280_humidity;BME280_pressure;Samples;Min_cycle;Max_cycle;Signal;HPM_P1;HPM_P2
2021/10/11 00:01:03;;;;;;;;;;;;;;;9.89;70.93;100306.88;5113874;28;20020;-68
2021/10/11 00:03:32;;;;;;;;;;;;;;;9.88;71.12;100299.22;5114251;28;20010;-68
2021/10/11 00:06:04;;;;;;;;;;;;;;;9.87;71.65;100292.41;5117868;28;19930;-68
2021/10/11 00:08:40;;;;;;;;;;;;;;;9.81;70.68;100293.19;5117501;28;19927;-69
2021/10/11 00:11:37;;;;;;;;;;;;;;;9.79;71.58;100284.66;5117898;28;19931;-69
2021/10/11 00:14:06;;;;;;;;;;;;;;;9.77;71.46;100298.22;5117429;28;19949;-69
2021/10/11 00:16:38;;;;;;;;;;;;;;;9.74;71.41;100290.56;5117275;28;19924;-69
2021/10/11 00:19:10;;;;;;;;;;;;;;;9.70;71.33;100299.84;5117304;28;19924;-69
2021/10/11 00:21:42;;;;;;;;;;;;;;;9.72;71.29;100299.84;5117599;28;19930;-69
2021/10/11 00:24:11;;;;;;;;;;;;;;;9.74;71.07;100291.38;5117114;28;19927;-68
2021/10/11 00:26:41;;;;;;;;;;;;;;;9.76;71.35;100288.88;5117073;28;19973;-69
2021/10/11 00:29:10;;;;;;;;;;;;;;;9.73;70.89;100291.38;5117182;28;19927;-69
2021/10/11 00:31:38;;;;;;;;;;;;;;;9.71;71.34;100278.63;5117093;28;19953;-69
2021/10/11 00:34:07;;;;;;;;;;;;;;;9.72;70.47;100276.91;5116974;28;19924;-69
2021/10/11 00:36:35;;;;;;;;;;;;;;;9.69;70.79;100272.66;5117191;28;20290;-69
2021/10/11 00:39:04;;;;;;;;;;;;;;;9.69;71.22;100271.81;5116910;28;20015;-69
2021/10/11 00:41:32;;;;;;;;;;;;;;;9.70;70.86;100273.50;5116805;28;19940;-69
2021/10/11 00:44:03;;;;;;;;;;;;;;;9.71;70.71;100265.03;5117002;28;20285;-69
2021/10/11 00:46:35;;;;;;;;;;;;;;;9.72;70.68;100267.59;5116747;28;20010;-69
2021/10/11 00:49:15;;;;;;;;;;;;;;;9.73;70.66;100268.44;5116908;28;19924;-68
2021/10/11 00:51:47;;;;;;;;;;;;;;;9.72;69.95;100269.28;5116918;28;19930;-69
2021/10/11 00:54:16;;;;;;;;;;;;;;;9.76;69.85;100268.50;5116652;28;19931;-69
2021/10/11 00:56:49;;;;;;;;;;;;;;;9.73;69.51;100258.25;5116559;28;19938;-68
2021/10/11 00:59:22;;;;;;;;;;;;;;;9.71;69.01;100259.94;5117106;28;20006;-69
2021/10/11 01:01:58;;;;;;;;;;;;;;;9.70;69.25;100253.97;5116531;28;19947;-69
2021/10/11 01:04:30;;;;;;;;;;;;;;;9.67;68.44;100253.09;5116355;28;19923;-69
2021/10/11 01:07:01;;;;;;;;;;;;;;;9.67;69.00;100255.66;5116698;28;19947;-69
2021/10/11 01:09:30;;;;;;;;;;;;;;;9.67;69.04;100248.00;5116351;28;19931;-68
2021/10/11 01:12:02;;;;;;;;;;;;;;;9.67;69.28;100242.91;5116249;28;20010;-69
2021/10/11 01:14:35;;;;;;;;;;;;;;;9.67;69.01;100248.00;5116586;28;19928;-69
2021/10/11 01:17:07;;;;;;;;;;;;;;;9.59;69.16;100247.91;5116167;28;20022;-68
2021/10/11 01:19:39;;;;;;;;;;;;;;;9.51;69.25;100253.72;5116164;28;19924;-68
2021/10/11 01:22:12;;;;;;;;;;;;;;;9.44;69.64;100256.19;5116458;28;19924;-69
2021/10/11 01:24:44;;;;;;;;;;;;;;;9.48;69.94;100258.81;5115936;28;19927;-69
2021/10/11 01:27:19;;;;;;;;;;;;;;;9.47;69.74;100262.16;5115983;28;20381;-68
2021/10/11 01:29:51;;;;;;;;;;;;;;;9.45;69.70;100251.97;5115922;28;19931;-68
2021/10/11 01:32:23;;;;;;;;;;;;;;;9.48;70.00;100256.25;5115929;28;19973;-69
2021/10/11 01:34:52;;;;;;;;;;;;;;;9.48;69.78;100252.00;5115854;28;19924;-69
2021/10/11 01:37:25;;;;;;;;;;;;;;;9.52;70.65;100255.44;5115754;28;19935;-68
2021/10/11 01:39:58;;;;;;;;;;;;;;;9.55;70.46;100250.41;5115734;28;19977;-69
2021/10/11 01:42:30;;;;;;;;;;;;;;;9.52;70.46;100243.56;5115666;28;20010;-69
2021/10/11 01:45:01;;;;;;;;;;;;;;;9.52;71.01;100243.56;5115564;28;19924;-69
2021/10/11 01:47:33;;;;;;;;;;;;;;;9.55;70.87;100237.66;5116219;28;19924;-69
2021/10/11 01:50:06;;;;;;;;;;;;;;;9.54;70.57;100231.69;5115771;28;20436;-69
2021/10/11 01:52:41;;;;;;;;;;;;;;;9.55;71.34;100230.00;5115435;28;20346;-69
2021/10/11 01:55:13;;;;;;;;;;;;;;;9.60;71.20;100220.72;5115446;28;19927;-69
2021/10/11 01:57:45;;;;;;;;;;;;;;;9.57;71.13;100220.69;5093576;28;20019;-69
2021/10/11 02:00:17;;;;;;;;;;;;;;;9.53;70.66;100224.00;5095233;28;20385;-69
2021/10/11 02:02:49;;;;;;;;;;;;;;;9.49;70.48;100222.28;5094953;28;19931;-69
2021/10/11 02:05:19;;;;;;;;;;;;;;;9.49;70.75;100222.28;5094775;28;19924;-69
2021/10/11 02:07:53;;;;;;;;;;;;;;;9.47;70.79;100231.59;5095144;28;20291;-69
2021/10/11 02:10:26;;;;;;;;;;;;;;;9.48;71.09;100225.69;5094822;28;19924;-68
2021/10/11 02:12:58;;;;;;;;;;;;;;;9.45;70.46;100222.22;5095051;28;19985;-68
2021/10/11 02:15:27;;;;;;;;;;;;;;;9.49;71.05;100220.59;5095005;28;20003;-68
2021/10/11 02:17:59;;;;;;;;;;;;;;;9.49;70.85;100222.28;5093452;28;19974;-69
2021/10/11 02:20:31;;;;;;;;;;;;;;;9.47;70.61;100223.94;5094663;28;19924;-69
2021/10/11 02:23:02;;;;;;;;;;;;;;;9.45;71.22;100226.50;5094607;28;19924;-69
2021/10/11 02:25:48;;;;;;;;;;;;;;;9.42;71.14;100222.22;5094478;28;20032;-68
2021/10/11 02:28:20;;;;;;;;;;;;;;;9.43;71.25;100223.91;5093786;28;19970;-69
2021/10/11 02:30:56;;;;;;;;;;;;;;;9.48;71.63;100225.69;5094782;28;19932;-69
2021/10/11 02:33:28;;;;;;;;;;;;;;;9.48;71.49;100228.22;5094441;28;20385;-69
2021/10/11 02:35:57;;;;;;;;;;;;;;;9.48;71.60;100225.69;5094364;28;19959;-69
2021/10/11 02:38:31;;;;;;;;;;;;;;;9.48;71.42;100220.59;5094299;28;20046;-69
2021/10/11 02:41:02;;;;;;;;;;;;;;;9.40;71.20;100213.69;5094310;28;19953;-69
2021/10/11 02:43:34;;;;;;;;;;;;;;;9.32;71.57;100217.84;5094315;28;19967;-69
2021/10/11 02:46:03;;;;;;;;;;;;;;;9.31;71.42;100208.47;5094481;28;19924;-68
2021/10/11 02:48:32;;;;;;;;;;;;;;;9.31;71.78;100207.59;5094152;28;19981;-68
2021/10/11 02:51:05;;;;;;;;;;;;;;;9.26;71.96;100202.47;5094166;28;19961;-69
2021/10/11 02:53:39;;;;;;;;;;;;;;;9.16;71.36;100208.28;5094202;28;20018;-69
2021/10/11 02:56:11;;;;;;;;;;;;;;;9.08;72.26;100214.97;5098597;28;19930;-69
2021/10/11 02:58:43;;;;;;;;;;;;;;;9.05;72.08;100211.50;5114453;28;20003;-69
2021/10/11 03:01:15;;;;;;;;;;;;;;;8.99;72.06;100199.56;5114350;28;19930;-68
2021/10/11 03:03:47;;;;;;;;;;;;;;;8.96;72.03;100199.50;5114419;28;19928;-68
2021/10/11 03:06:19;;;;;;;;;;;;;;;8.86;72.49;100196.81;5114673;28;19931;-69
2021/10/11 03:08:52;;;;;;;;;;;;;;;8.76;73.07;100200.91;5114680;28;20289;-69
2021/10/11 03:11:25;;;;;;;;;;;;;;;8.78;72.49;100199.25;5114278;28;19930;-68
2021/10/11 03:13:54;;;;;;;;;;;;;;;8.78;72.79;100204.34;5114289;28;20019;-68
2021/10/11 03:16:26;;;;;;;;;;;;;;;8.72;72.77;100197.47;4533777;22;21947;-69
2021/10/11 03:18:55;;;;;;;;;;;;;;;8.72;72.64;100207.66;5053980;28;20032;-69
2021/10/11 03:21:24;;;;;;;;;;;;;;;8.73;72.28;100195.78;5053603;28;20011;-69
2021/10/11 03:23:57;;;;;;;;;;;;;;;8.76;72.58;100198.34;5053922;28;20285;-69
2021/10/11 03:26:27;;;;;;;;;;;;;;;8.78;72.51;100191.63;5053585;28;19955;-69
2021/10/11 03:28:59;;;;;;;;;;;;;;;8.67;71.81;100185.50;5053613;28;19925;-69
2021/10/11 03:31:29;;;;;;;;;;;;;;;8.58;72.35;100191.31;5052695;28;19931;-69
2021/10/11 03:34:00;;;;;;;;;;;;;;;8.49;72.74;100190.34;5053884;28;19971;-69
2021/10/11 03:36:32;;;;;;;;;;;;;;;8.35;72.71;100186.72;5052328;28;19940;-69
2021/10/11 03:39:06;;;;;;;;;;;;;;;8.26;72.67;100182.31;5054822;28;19956;-69
2021/10/11 03:41:35;;;;;;;;;;;;;;;8.21;73.52;100185.56;5057435;28;19932;-69
2021/10/11 03:44:07;;;;;;;;;;;;;;;8.32;73.61;100182.44;5057276;28;19925;-69
2021/10/11 03:46:39;;;;;;;;;;;;;;;8.28;73.79;100184.91;5057469;28;20292;-69
2021/10/11 03:49:08;;;;;;;;;;;;;;;8.16;73.20;100175.31;5057544;28;19925;-69
2021/10/11 03:51:39;;;;;;;;;;;;;;;8.18;74.09;100171.16;5057151;28;19991;-68
2021/10/11 03:54:16;;;;;;;;;;;;;;;8.20;73.84;100166.06;5057171;28;19925;-69
2021/10/11 03:56:45;;;;;;;;;;;;;;;8.21;74.01;100170.31;5057444;28;19925;-69
2021/10/11 03:59:17;;;;;;;;;;;;;;;8.24;74.08;100170.38;5056975;28;20020;-69
2021/10/11 04:01:48;;;;;;;;;;;;;;;8.22;73.95;100164.41;5057009;28;20011;-69
2021/10/11 04:04:20;;;;;;;;;;;;;;;8.26;73.39;100164.50;5057010;28;19955;-69
2021/10/11 04:06:49;;;;;;;;;;;;;;;8.26;74.46;100161.06;5056885;28;19925;-69
2021/10/11 04:09:27;;;;;;;;;;;;;;;8.24;73.30;100167.84;5056827;28;19925;-69
2021/10/11 04:12:04;;;;;;;;;;;;;;;8.11;73.61;100157.47;5057161;28;19925;-69
2021/10/11 04:14:37;;;;;;;;;;;;;;;8.07;74.41;100154.84;5057097;28;19928;-69
2021/10/11 04:17:05;;;;;;;;;;;;;;;8.10;74.71;100158.31;5061385;28;19924;-69
2021/10/11 04:19:37;;;;;;;;;;;;;;;8.15;74.05;100149.88;5076560;28;19928;-69
2021/10/11 04:22:10;;;;;;;;;;;;;;;8.13;74.15;100150.72;5076625;28;20011;-69
2021/10/11 04:24:43;;;;;;;;;;;;;;;8.06;74.00;100148.91;5076538;28;19924;-69
2021/10/11 04:27:18;;;;;;;;;;;;;;;8.03;73.49;100148.00;5076542;28;19929;-68
2021/10/11 04:29:51;;;;;;;;;;;;;;;7.97;73.39;100143.66;5076804;28;19925;-68
2021/10/11 04:32:23;;;;;;;;;;;;;;;7.96;73.22;100149.59;5076686;28;20400;-69
2021/10/11 04:34:55;;;;;;;;;;;;;;;7.94;73.34;100152.94;5076405;28;19929;-68
2021/10/11 04:37:27;;;;;;;;;;;;;;;7.92;74.03;100144.41;5076328;28;19924;-69
2021/10/11 04:40:00;;;;;;;;;;;;;;;7.87;73.51;100151.94;5076344;28;20027;-70
2021/10/11 04:42:32;;;;;;;;;;;;;;;7.83;73.40;100157.81;5076185;28;19968;-69
2021/10/11 04:45:04;;;;;;;;;;;;;;;7.76;73.73;100147.50;5076143;28;19931;-70
2021/10/11 04:47:36;;;;;;;;;;;;;;;7.69;73.67;100149.09;5076200;28;19924;-70
2021/10/11 04:50:09;;;;;;;;;;;;;;;7.61;73.75;100148.09;5075815;28;19931;-70
2021/10/11 04:52:41;;;;;;;;;;;;;;;7.54;73.32;100150.47;5076027;28;19931;-70
2021/10/11 04:55:12;;;;;;;;;;;;;;;7.52;74.60;100153.00;5076042;28;19928;-70
2021/10/11 04:57:44;;;;;;;;;;;;;;;7.53;74.25;100149.66;5076030;28;19948;-70
2021/10/11 05:00:16;;;;;;;;;;;;;;;7.51;74.53;100155.53;5075972;28;19974;-70
2021/10/11 05:02:48;;;;;;;;;;;;;;;7.45;73.94;100151.19;5076140;28;20266;-70
2021/10/11 05:05:20;;;;;;;;;;;;;;;7.46;73.95;100155.44;5075770;28;19964;-69
2021/10/11 05:07:55;;;;;;;;;;;;;;;7.44;74.69;100145.25;5076066;28;20293;-69
2021/10/11 05:10:28;;;;;;;;;;;;;;;7.51;74.33;100146.19;5076020;28;20368;-69
2021/10/11 05:13:00;;;;;;;;;;;;;;;7.56;74.92;100159.00;5075687;28;19924;-69
2021/10/11 05:15:29;;;;;;;;;;;;;;;7.60;73.86;100151.47;5075886;28;20407;-68
2021/10/11 05:18:00;;;;;;;;;;;;;;;7.55;73.82;100153.06;5074371;28;20285;-69
2021/10/11 05:20:34;;;;;;;;;;;;;;;7.47;74.57;100164.75;5075870;28;19970;-69
2021/10/11 05:23:03;;;;;;;;;;;;;;;7.48;74.50;100161.41;5076140;28;19935;-68
2021/10/11 05:25:34;;;;;;;;;;;;;;;7.49;75.04;100158.03;5075284;28;19924;-68
2021/10/11 05:28:07;;;;;;;;;;;;;;;7.43;74.78;100163.00;5075643;28;19932;-68
2021/10/11 05:30:44;;;;;;;;;;;;;;;7.47;74.59;100172.38;5075687;28;19925;-70
2021/10/11 05:33:13;;;;;;;;;;;;;;;7.47;74.90;100169.84;5075576;28;19928;-68
2021/10/11 05:35:45;;;;;;;;;;;;;;;7.46;75.36;100168.13;5075201;28;19924;-68
2021/10/11 05:38:13;;;;;;;;;;;;;;;7.51;75.34;100166.50;5075147;28;20019;-68
2021/10/11 05:40:44;;;;;;;;;;;;;;;7.56;74.95;100162.38;5057558;28;19925;-69
2021/10/11 05:43:15;;;;;;;;;;;;;;;7.61;74.84;100160.78;5075026;28;19924;-70
2021/10/11 05:45:47;;;;;;;;;;;;;;;7.68;74.38;100164.31;5074839;28;19924;-70
2021/10/11 05:48:19;;;;;;;;;;;;;;;7.69;74.55;100154.19;5075236;28;19963;-70
2021/10/11 05:50:51;;;;;;;;;;;;;;;7.70;74.23;100158.41;5074899;28;19930;-70
2021/10/11 05:53:20;;;;;;;;;;;;;;;7.69;73.80;100161.81;5075168;28;20285;-70
2021/10/11 05:55:53;;;;;;;;;;;;;;;7.68;73.39;100160.06;5074416;28;20018;-70
2021/10/11 05:58:26;;;;;;;;;;;;;;;7.67;73.76;100162.59;5074648;28;19955;-71
2021/10/11 06:00:58;;;;;;;;;;;;;;;7.66;73.63;100158.34;5056606;28;20262;-70
2021/10/11 06:03:31;;;;;;;;;;;;;;;7.62;73.11;100165.06;5074291;28;19928;-70
2021/10/11 06:06:00;;;;;;;;;;;;;;;7.62;73.19;100159.97;5074399;28;20393;-70
2021/10/11 06:08:29;;;;;;;;;;;;;;;7.65;73.87;100160.03;5074408;28;20027;-70
2021/10/11 06:11:02;;;;;;;;;;;;;;;7.68;73.86;100152.44;5075150;28;19924;-69
2021/10/11 06:13:34;;;;;;;;;;;;;;;7.82;74.09;100158.63;5075328;28;19930;-69
2021/10/11 06:16:06;;;;;;;;;;;;;;;7.94;74.06;100146.16;5074426;28;19924;-69
2021/10/11 06:18:38;;;;;;;;;;;;;;;8.02;73.61;100151.38;5073512;28;19925;-69
2021/10/11 06:21:10;;;;;;;;;;;;;;;8.08;73.70;100157.44;5074609;28;20430;-69
2021/10/11 06:23:42;;;;;;;;;;;;;;;8.11;73.41;100152.38;5056721;28;20267;-69
2021/10/11 06:26:12;;;;;;;;;;;;;;;8.17;73.26;100158.41;5056091;28;19925;-69
2021/10/11 06:28:44;;;;;;;;;;;;;;;8.22;73.31;100146.63;5074259;28;19962;-69
2021/10/11 06:31:17;;;;;;;;;;;;;;;8.25;72.71;100151.75;5073305;28;19946;-70
2021/10/11 06:33:49;;;;;;;;;;;;;;;8.31;72.89;100150.19;5074504;28;19925;-69
2021/10/11 06:36:21;;;;;;;;;;;;;;;8.34;72.33;100150.25;5074155;28;19924;-69
2021/10/11 06:38:52;;;;;;;;;;;;;;;8.37;72.27;100146.91;5074110;28;19932;-69
2021/10/11 06:41:25;;;;;;;;;;;;;;;8.33;72.37;100150.19;5074688;28;19974;-71
2021/10/11 06:43:58;;;;;;;;;;;;;;;8.39;72.96;100152.84;5056434;28;20324;-71
2021/10/11 06:46:30;;;;;;;;;;;;;;;8.42;72.80;100150.38;5073996;28;19932;-69
2021/10/11 06:49:02;;;;;;;;;;;;;;;8.41;72.93;100146.97;5074302;28;19946;-70
2021/10/11 06:51:34;;;;;;;;;;;;;;;8.44;72.66;100153.78;5074018;28;19924;-69
2021/10/11 06:54:06;;;;;;;;;;;;;;;8.39;72.21;100152.84;5073935;28;20293;-69
2021/10/11 06:56:40;;;;;;;;;;;;;;;8.30;72.28;100157.81;5073919;28;19931;-69
2021/10/11 06:59:09;;;;;;;;;;;;;;;8.25;72.01;100161.94;5073764;28;20408;-70
2021/10/11 07:01:43;;;;;;;;;;;;;;;8.27;72.05;100157.75;5073768;28;20029;-71
2021/10/11 07:04:32;;;;;;;;;;;;;;;8.32;71.93;100161.22;5074135;28;20314;-69
2021/10/11 07:07:04;;;;;;;;;;;;;;;8.35;71.74;100161.28;5074288;28;20324;-69
2021/10/11 07:09:36;;;;;;;;;;;;;;;8.36;71.63;100163.84;5073795;28;19925;-69
2021/10/11 07:12:09;;;;;;;;;;;;;;;8.43;71.77;100165.63;5073840;28;20019;-69
2021/10/11 07:14:38;;;;;;;;;;;;;;;8.46;71.28;100165.69;5077897;28;19924;-69
2021/10/11 07:17:07;;;;;;;;;;;;;;;8.44;71.51;100166.50;5077523;28;20015;-69
2021/10/11 07:19:36;;;;;;;;;;;;;;;8.43;71.77;100174.94;5077803;28;19925;-70
2021/10/11 07:22:05;;;;;;;;;;;;;;;8.46;71.88;100175.00;5077663;28;19959;-71
2021/10/11 07:24:34;;;;;;;;;;;;;;;8.59;72.12;100176.94;5077395;28;19928;-68
2021/10/11 07:27:02;;;;;;;;;;;;;;;8.71;71.51;100174.53;5077556;28;20349;-67
2021/10/11 07:29:33;;;;;;;;;;;;;;;8.83;71.04;100167.06;5077243;28;19925;-66
2021/10/11 07:32:02;;;;;;;;;;;;;;;8.85;70.61;100167.97;5077379;28;20447;-69
2021/10/11 07:34:32;;;;;;;;;;;;;;;8.84;70.41;100160.31;5059152;28;19924;-68
2021/10/11 07:37:00;;;;;;;;;;;;;;;8.85;70.14;100155.25;5076796;28;19968;-67
2021/10/11 07:39:29;;;;;;;;;;;;;;;8.88;69.99;100162.91;5076470;28;19924;-67
2021/10/11 07:42:00;;;;;;;;;;;;;;;8.96;70.44;100163.88;5077371;28;19924;-67
2021/10/11 07:44:29;;;;;;;;;;;;;;;9.04;69.83;100161.44;5077265;28;20336;-67
2021/10/11 07:46:59;;;;;;;;;;;;;;;9.11;70.10;100159.00;5077372;28;19974;-68
2021/10/11 07:49:31;;;;;;;;;;;;;;;9.20;69.10;100156.56;5077163;28;19974;-69
2021/10/11 07:52:00;;;;;;;;;;;;;;;9.29;69.06;100143.91;5077155;28;19924;-68
2021/10/11 07:54:28;;;;;;;;;;;;;;;9.35;68.91;100146.56;5077330;28;19924;-68
2021/10/11 07:56:57;;;;;;;;;;;;;;;9.36;69.29;100140.59;5076652;28;20028;-68
2021/10/11 07:59:28;;;;;;;;;;;;;;;9.47;69.05;100142.44;5077002;28;19924;-68
2021/10/11 08:01:57;;;;;;;;;;;;;;;9.54;68.47;100141.66;5076749;28;19925;-68
2021/10/11 08:04:27;;;;;;;;;;;;;;;9.55;68.92;100140.81;5076759;28;19930;-68
2021/10/11 08:06:56;;;;;;;;;;;;;;;9.52;68.91;100140.78;5076852;28;19950;-68
2021/10/11 08:09:24;;;;;;;;;;;;;;;9.57;69.36;100139.16;5077005;28;20309;-70
2021/10/11 08:11:53;;;;;;;;;;;;;;;9.71;69.51;100137.59;5077096;28;19925;-67
2021/10/11 08:14:22;;;;;;;;;;;;;;;9.85;68.74;100129.25;5076870;28;20011;-68
2021/10/11 08:16:50;;;;;;;;;;;;;;;9.94;68.44;100136.09;5076487;28;19925;-68
2021/10/11 08:19:19;;;;;;;;;;;;;;;9.86;68.38;100128.38;5076687;28;20421;-68
2021/10/11 08:21:49;;;;;;;;;;;;;;;10.01;68.43;100132.75;5076480;28;19958;-68
2021/10/11 08:24:18;;;;;;;;;;;;;;;10.06;67.69;100131.13;5075852;28;20404;-68
2021/10/11 08:26:46;;;;;;;;;;;;;;;10.19;67.04;100120.22;5076419;28;19931;-68
2021/10/11 08:29:16;;;;;;;;;;;;;;;10.09;67.43;100123.50;5076751;28;19931;-68
2021/10/11 08:31:44;;;;;;;;;;;;;;;10.19;68.10;100122.75;5076362;28;19929;-68
2021/10/11 08:34:13;;;;;;;;;;;;;;;10.30;68.13;100121.13;5076162;28;19970;-68
2021/10/11 08:36:42;;;;;;;;;;;;;;;10.37;68.46;100117.78;5076496;28;19924;-68
2021/10/11 08:39:12;;;;;;;;;;;;;;;10.46;68.97;100107.63;5076128;28;19924;-68
2021/10/11 08:41:41;;;;;;;;;;;;;;;10.62;69.02;100098.38;5076278;28;20361;-68
2021/10/11 08:44:11;;;;;;;;;;;;;;;10.75;68.48;100097.59;5076131;28;19925;-68
2021/10/11 08:46:40;;;;;;;;;;;;;;;10.86;67.04;100097.66;5076035;28;19932;-68
2021/10/11 08:49:08;;;;;;;;;;;;;;;10.92;66.54;100092.59;5076304;28;19925;-68
2021/10/11 08:51:37;;;;;;;;;;;;;;;10.94;66.02;100096.84;5075991;28;19973;-68
2021/10/11 08:54:06;;;;;;;;;;;;;;;10.96;65.16;100099.41;5075952;28;19924;-68
2021/10/11 08:56:36;;;;;;;;;;;;;;;11.06;65.21;100096.06;5075831;28;20019;-68
2021/10/11 08:59:05;;;;;;;;;;;;;;;11.18;65.48;100101.22;5076005;28;20411;-68
2021/10/11 09:01:33;;;;;;;;;;;;;;;11.30;65.13;100091.03;5075732;28;20061;-68
2021/10/11 09:04:04;;;;;;;;;;;;;;;11.38;65.93;100100.41;5076042;28;19932;-69
2021/10/11 09:06:32;;;;;;;;;;;;;;;11.45;65.49;100106.38;5075596;28;20288;-68
2021/10/11 09:09:09;;;;;;;;;;;;;;;11.62;65.13;100109.84;5075749;28;19925;-69
2021/10/11 09:11:40;;;;;;;;;;;;;;;11.67;65.09;100110.69;5075693;28;19932;-69
2021/10/11 09:14:09;;;;;;;;;;;;;;;11.73;65.32;100097.97;5076114;28;19928;-69
2021/10/11 09:16:41;;;;;;;;;;;;;;;11.76;65.32;100100.50;5075769;28;19925;-69
2021/10/11 09:19:10;;;;;;;;;;;;;;;11.74;65.33;100099.66;5075469;28;19959;-69
2021/10/11 09:21:39;;;;;;;;;;;;;;;11.63;64.10;100101.34;5075807;28;19929;-68
2021/10/11 09:24:09;;;;;;;;;;;;;;;11.81;64.36;100096.25;5075333;28;19939;-68
2021/10/11 09:26:46;;;;;;;;;;;;;;;11.96;64.10;100091.16;5075654;28;19954;-69
2021/10/11 09:29:15;;;;;;;;;;;;;;;12.06;63.32;100090.31;5075278;28;19931;-69
2021/10/11 09:31:47;;;;;;;;;;;;;;;12.15;63.88;100086.88;5075314;28;20309;-69
2021/10/11 09:34:19;;;;;;;;;;;;;;;12.30;64.07;100083.47;5057434;28;19970;-69
2021/10/11 09:36:56;;;;;;;;;;;;;;;12.41;63.92;100080.03;5074498;28;19925;-69
2021/10/11 09:39:24;;;;;;;;;;;;;;;12.52;62.46;100082.59;5075704;28;20274;-69
2021/10/11 09:41:55;;;;;;;;;;;;;;;12.49;61.46;100077.47;5075053;28;19931;-69
2021/10/11 09:44:24;;;;;;;;;;;;;;;12.60;61.29;100076.56;5075037;28;19924;-69
2021/10/11 09:46:56;;;;;;;;;;;;;;;12.61;60.07;100082.56;5074986;28;19931;-69
2021/10/11 09:49:25;;;;;;;;;;;;;;;12.64;59.73;100077.44;5074597;28;19932;-68
2021/10/11 09:51:55;;;;;;;;;;;;;;;12.74;60.63;100074.00;5074440;28;19928;-69
2021/10/11 09:54:24;;;;;;;;;;;;;;;12.78;61.32;100073.97;5074535;28;19928;-68
2021/10/11 09:56:54;;;;;;;;;;;;;;;12.91;62.06;100072.19;5074795;28;20332;-69
2021/10/11 09:59:23;;;;;;;;;;;;;;;13.01;62.10;100076.44;5074454;28;19924;-69
2021/10/11 10:01:51;;;;;;;;;;;;;;;13.09;61.37;100084.97;5074400;28;19964;-69
2021/10/11 10:04:23;;;;;;;;;;;;;;;13.09;59.57;100081.56;5074520;28;19924;-69
2021/10/11 10:06:53;;;;;;;;;;;;;;;13.04;58.87;100078.97;5074584;28;19948;-69
2021/10/11 10:09:23;;;;;;;;;;;;;;;13.08;59.54;100080.69;5074384;28;19924;-69
2021/10/11 10:11:52;;;;;;;;;;;;;;;13.14;58.54;100070.44;5074482;28;19925;-69
2021/10/11 10:14:23;;;;;;;;;;;;;;;13.19;58.34;100071.28;5074250;28;19924;-70
2021/10/11 10:16:53;;;;;;;;;;;;;;;13.34;58.62;100063.47;5074112;28;19925;-70
2021/10/11 10:19:32;;;;;;;;;;;;;;;13.50;58.42;100063.38;5074453;28;19932;-69
2021/10/11 10:22:02;;;;;;;;;;;;;;;13.62;58.46;100068.44;5074291;28;19924;-69
2021/10/11 10:24:31;;;;;;;;;;;;;;;13.67;57.50;100061.56;5074494;28;19925;-69
2021/10/11 10:27:03;;;;;;;;;;;;;;;13.60;57.82;100062.47;5074509;28;19924;-70
2021/10/11 10:29:42;;;;;;;;;;;;;;;13.65;58.11;100048.75;5074173;28;19974;-70
2021/10/11 10:32:11;;;;;;;;;;;;;;;13.75;57.74;100049.53;5074095;28;19924;-70
2021/10/11 10:34:41;;;;;;;;;;;;;;;13.83;56.64;100047.75;5073947;28;19924;-70
2021/10/11 10:37:10;;;;;;;;;;;;;;;13.82;56.01;100051.19;5073982;28;19924;-70
2021/10/11 10:39:43;;;;;;;;;;;;;;;13.78;56.49;100034.09;5073805;28;19972;-71
2021/10/11 10:42:21;;;;;;;;;;;;;;;13.83;57.11;100040.06;5073977;28;20029;-70
2021/10/11 10:44:52;;;;;;;;;;;;;;;13.90;57.66;100034.00;5073591;28;19925;-70
2021/10/11 10:47:31;;;;;;;;;;;;;;;13.91;56.48;100030.59;5073570;28;19924;-69
2021/10/11 10:49:59;;;;;;;;;;;;;;;14.11;55.95;100020.97;5073566;28;19924;-70
2021/10/11 10:52:28;;;;;;;;;;;;;;;14.47;55.00;100023.19;5073052;28;20023;-70
2021/10/11 10:54:59;;;;;;;;;;;;;;;14.94;54.47;100009.81;5073718;28;19924;-70
2021/10/11 10:57:29;;;;;;;;;;;;;;;15.04;53.63;100020.81;5073735;28;19972;-70
2021/10/11 11:00:02;;;;;;;;;;;;;;;15.02;53.74;100012.28;5073185;28;20272;-70
2021/10/11 11:02:31;;;;;;;;;;;;;;;15.19;53.64;100010.28;5073565;28;19929;-70
2021/10/11 11:05:01;;;;;;;;;;;;;;;15.34;52.83;99999.78;5073609;28;19930;-69
2021/10/11 11:07:32;;;;;;;;;;;;;;;15.37;52.47;99992.03;5073619;28;19929;-70
2021/10/11 11:10:01;;;;;;;;;;;;;;;15.54;52.90;99991.81;5073814;28;20354;-70
2021/10/11 11:12:31;;;;;;;;;;;;;;;15.57;52.41;99984.91;5073484;28;19924;-69
2021/10/11 11:14:59;;;;;;;;;;;;;;;15.59;51.86;99982.31;5073484;28;19924;-70
2021/10/11 11:17:30;;;;;;;;;;;;;;;15.66;52.05;99977.03;5073464;28;19930;-69
2021/10/11 11:19:59;;;;;;;;;;;;;;;15.81;51.67;99976.75;5073657;28;19925;-69
2021/10/11 11:22:29;;;;;;;;;;;;;;;15.91;51.99;99973.16;5073804;28;20424;-69
2021/10/11 11:25:01;;;;;;;;;;;;;;;15.97;51.61;99970.47;5073313;28;19925;-69
2021/10/11 11:27:30;;;;;;;;;;;;;;;15.95;50.86;99964.50;5073162;28;20386;-69
2021/10/11 11:30:01;;;;;;;;;;;;;;;16.22;50.21;99967.47;5072291;28;19924;-69
2021/10/11 11:32:32;;;;;;;;;;;;;;;16.39;50.02;99953.34;5073800;28;19924;-69
2021/10/11 11:35:01;;;;;;;;;;;;;;;16.75;50.72;99960.34;5073519;28;20382;-69
2021/10/11 11:37:29;;;;;;;;;;;;;;;17.00;50.39;99955.53;5073494;28;19947;-69
2021/10/11 11:40:05;;;;;;;;;;;;;;;16.96;49.10;99953.06;5074303;28;19929;-70
2021/10/11 11:42:35;;;;;;;;;;;;;;;17.10;49.07;99949.28;5073439;28;19933;-69
2021/10/11 11:45:04;;;;;;;;;;;;;;;17.18;48.88;99949.94;5073399;28;19986;-69
2021/10/11 11:47:34;;;;;;;;;;;;;;;17.16;48.42;99949.13;5073678;28;20370;-69
2021/10/11 11:50:03;;;;;;;;;;;;;;;17.36;48.54;99939.19;5073648;28;19924;-69
2021/10/11 11:52:32;;;;;;;;;;;;;;;17.62;47.93;99929.97;5073647;28;19925;-69
2021/10/11 11:55:01;;;;;;;;;;;;;;;17.75;47.64;99926.22;5073360;28;19924;-69
2021/10/11 11:57:41;;;;;;;;;;;;;;;17.52;47.66;99920.78;5073476;28;19970;-69
2021/10/11 12:00:12;;;;;;;;;;;;;;;17.33;47.88;99913.47;5074825;28;19924;-69
2021/10/11 12:02:44;;;;;;;;;;;;;;;17.35;48.51;99916.84;5077248;28;20321;-69
2021/10/11 12:05:13;;;;;;;;;;;;;;;17.65;48.31;99909.25;5076954;28;19932;-69
2021/10/11 12:07:43;;;;;;;;;;;;;;;17.97;48.99;99909.28;5076902;28;20015;-69
2021/10/11 12:10:13;;;;;;;;;;;;;;;17.96;47.23;99911.00;5076922;28;20426;-69
2021/10/11 12:12:41;;;;;;;;;;;;;;;18.12;46.77;99910.56;5077151;28;19924;-69
2021/10/11 12:15:17;;;;;;;;;;;;;;;18.38;47.00;99906.34;5077007;28;20322;-69
2021/10/11 12:17:47;;;;;;;;;;;;;;;18.60;46.75;99904.03;5076404;28;19925;-69
2021/10/11 12:20:17;;;;;;;;;;;;;;;18.79;46.65;99902.59;5076767;28;19970;-69
2021/10/11 12:22:53;;;;;;;;;;;;;;;18.91;46.07;99898.81;5076888;28;19925;-69
2021/10/11 12:25:32;;;;;;;;;;;;;;;19.06;45.52;99893.13;5076527;28;19975;-69
2021/10/11 12:28:08;;;;;;;;;;;;;;;19.17;45.03;99886.69;5076532;28;19931;-69
2021/10/11 12:30:37;;;;;;;;;;;;;;;19.24;45.45;99887.38;5076514;28;19975;-69
2021/10/11 12:33:13;;;;;;;;;;;;;;;19.24;44.28;99880.44;5076710;28;19928;-69
2021/10/11 12:35:42;;;;;;;;;;;;;;;19.08;42.45;99878.38;5076411;28;19924;-69
2021/10/11 12:38:12;;;;;;;;;;;;;;;19.12;42.18;99867.06;5075785;28;20280;-69
2021/10/11 12:40:41;;;;;;;;;;;;;;;19.24;43.29;99879.59;5076678;28;20346;-69
2021/10/11 12:43:17;;;;;;;;;;;;;;;19.33;43.91;99871.53;5076207;28;19924;-70
2021/10/11 12:45:47;;;;;;;;;;;;;;;19.38;44.64;99869.66;5076576;28;20439;-70
2021/10/11 12:48:17;;;;;;;;;;;;;;;19.48;44.98;99868.47;5075872;28;19925;-70
2021/10/11 12:50:53;;;;;;;;;;;;;;;19.65;44.37;99871.31;5076003;28;19925;-70
2021/10/11 12:53:29;;;;;;;;;;;;;;;19.68;43.14;99871.22;5076043;28;19925;-69
2021/10/11 12:55:58;;;;;;;;;;;;;;;19.72;43.38;99864.19;5075947;28;20003;-70
2021/10/11 12:58:27;;;;;;;;;;;;;;;19.60;44.71;99865.47;5075897;28;19931;-69
2021/10/11 13:00:56;;;;;;;;;;;;;;;19.53;44.58;99858.78;5075812;28;19925;-70
2021/10/11 13:03:27;;;;;;;;;;;;;;;19.62;44.15;99858.47;5075816;28;20356;-69
2021/10/11 13:05:58;;;;;;;;;;;;;;;19.76;43.47;99861.44;5075907;28;19924;-69